• Join FlightAware (Why Join?)
  • Login
  • US Flag 
11:16PM EST


 

Airport Tracker/Info


-or-


 

Live Flight TrackerFlight Track Log ✈ N441R ✈ 04-May-2014 ✈ KBKW - KMDW

Flight Track Log - Related Links

Times and Time Zones

All times are in EDT time to prevent confusion due to time zone crossing. See the N441R flight status page for this flight to view local times or setup timezone preferences in your user account.

Time Position Orientation Groundspeed Altitude Reporting Facility
EDT Latitude Longitude Course Direction KTS MPH feet Rate Location/Type
02:12PM 37.8036 -81.1731 307° West 141 162 4,900  Level Indianapolis Center
02:13PM 37.8333 -81.2078 317° Northwest 143 165 6,900 1,984 Climbing Indianapolis Center
02:14PM 37.8606 -81.2514 308° West 153 176 9,000 2,129 Climbing Indianapolis Center
02:15PM 37.8936 -81.3017 310° West 153 176 11,300 2,064 Climbing Indianapolis Center
02:16PM 37.9849 -81.4273 310° West  Level FlightAware Approximate
02:16PM 37.9200 -81.3386 312° West 148 170 13,300  Level Indianapolis Center
02:17PM 38.0238 -81.4896 307° West  Level FlightAware Approximate
02:17PM 37.9464 -81.3692 318° Northwest 137 158 15,200  Level Indianapolis Center
02:18PM 37.9733 -81.3983 320° Northwest 129 148 17,100 1,680 Climbing Indianapolis Center
02:19PM 38.0019 -81.4331 316° Northwest 137 158 18,700 1,536 Climbing Indianapolis Center
02:20PM 38.0331 -81.4692 318° Northwest 147 169 20,300 1,742 Climbing Indianapolis Center
02:21PM 38.0683 -81.5133 315° West 150 173 22,300 1,694 Climbing Indianapolis Center
02:22PM 38.0975 -81.5475 317° Northwest 147 169 23,800 1,392 Climbing Indianapolis Center
02:23PM 38.1267 -81.5825 317° Northwest 146 168 25,200 1,016 Climbing Indianapolis Center
02:24PM 38.1569 -81.6181 317° Northwest 146 168 25,900 397 Climbing Indianapolis Center
02:25PM 38.1936 -81.6614 317° Northwest 166 191 26,000 48 Climbing Indianapolis Center
02:26PM 38.2364 -81.7128 317° Northwest 198 228 26,000  Level Indianapolis Center
02:27PM 38.2814 -81.7667 317° Northwest 213 245 26,000  Level Indianapolis Center
02:28PM 38.3361 -81.8314 317° Northwest 219 252 26,000  Level Indianapolis Center
02:29PM 38.3808 -81.8867 316° Northwest 219 252 26,000  Level Indianapolis Center
02:30PM 38.4253 -81.9394 317° Northwest 219 252 26,000  Level Indianapolis Center
02:31PM 38.4692 -81.9936 316° Northwest 219 252 26,000  Level Indianapolis Center
02:32PM 38.5144 -82.0464 318° Northwest 219 252 26,000  Level Indianapolis Center
02:33PM 38.5589 -82.1003 317° Northwest 219 252 26,000  Level Indianapolis Center
02:35PM 38.6033 -82.1539 317° Northwest 219 252 26,000  Level Indianapolis Center
02:36PM 38.6569 -82.2197 316° Northwest 219 252 26,000  Level Indianapolis Center
02:37PM 38.7017 -82.2731 317° Northwest 219 252 26,000  Level Indianapolis Center
02:38PM 38.7461 -82.3275 316° Northwest 219 252 26,000  Level Indianapolis Center
02:39PM 38.7906 -82.3817 316° Northwest 219 252 26,000  Level Indianapolis Center
02:40PM 38.8350 -82.4361 316° Northwest 219 252 26,000  Level Indianapolis Center
02:41PM 38.8792 -82.4906 316° Northwest 220 253 26,000  Level Indianapolis Center
02:42PM 38.9236 -82.5453 316° Northwest 220 253 26,000  Level Indianapolis Center
02:43PM 38.9767 -82.6122 316° Northwest 220 253 26,000  Level Indianapolis Center
02:44PM 39.0208 -82.6661 317° Northwest 220 253 26,000  Level Indianapolis Center
02:45PM 39.0644 -82.7197 316° Northwest 220 253 26,000  Level Indianapolis Center
02:46PM 39.1081 -82.7742 316° Northwest 220 253 26,000  Level Indianapolis Center
02:47PM 39.1514 -82.8278 316° Northwest 219 252 26,000  Level Indianapolis Center
02:48PM 39.2031 -82.8908 317° Northwest 219 252 26,000  Level Indianapolis Center
02:49PM 39.2472 -82.9458 316° Northwest 219 252 26,000  Level Indianapolis Center
02:50PM 39.2900 -83.0003 315° West 219 252 26,000  Level Indianapolis Center
02:51PM 39.3342 -83.0558 316° Northwest 219 252 26,000  Level Indianapolis Center
02:52PM 39.3778 -83.1100 316° Northwest 219 252 26,000  Level Indianapolis Center
02:53PM 39.4211 -83.1650 316° Northwest 219 252 26,000  Level Indianapolis Center
02:54PM 39.4731 -83.2297 316° Northwest 219 252 26,000  Level Indianapolis Center
02:55PM 39.5156 -83.2839 315° West 218 251 26,000  Level Indianapolis Center
02:56PM 39.5589 -83.3378 316° Northwest 218 251 26,000  Level Indianapolis Center
02:57PM 39.6019 -83.3917 316° Northwest 217 250 26,000  Level Indianapolis Center
02:58PM 39.6447 -83.4461 316° Northwest 217 250 26,000  Level Indianapolis Center
02:59PM 39.6869 -83.5006 315° West 216 249 26,000  Level Indianapolis Center
03:00PM 39.7306 -83.5556 316° Northwest 216 249 26,000  Level Indianapolis Center
03:01PM 39.7822 -83.6225 315° West 216 249 26,000  Level Indianapolis Center
03:02PM 39.8258 -83.6767 316° Northwest 216 249 26,000  Level Indianapolis Center
03:04PM 39.8689 -83.7322 315° West 216 249 26,000  Level Indianapolis Center
03:05PM 39.9119 -83.7869 316° Northwest 216 249 26,000  Level Indianapolis Center
03:06PM 39.9544 -83.8406 316° Northwest 216 249 26,000  Level Indianapolis Center
03:07PM 39.9969 -83.8964 315° West 216 249 26,000  Level Indianapolis Center
03:08PM 40.0400 -83.9514 316° Northwest 216 249 26,000  Level Indianapolis Center
03:09PM 40.0903 -84.0169 315° West 216 249 26,000  Level Indianapolis Center
03:10PM 40.1328 -84.0719 315° West 216 249 26,000  Level Indianapolis Center
03:11PM 40.1758 -84.1269 316° Northwest 216 249 26,000  Level Indianapolis Center
03:12PM 40.2167 -84.1808 315° West 215 247 26,000  Level Indianapolis Center
03:13PM 40.2589 -84.2347 316° Northwest 214 246 26,000  Level Indianapolis Center
03:14PM 40.3003 -84.2900 314° West 214 246 26,000  Level Indianapolis Center
03:15PM 40.3506 -84.3553 315° West 214 246 26,000  Level Indianapolis Center
03:16PM 40.3928 -84.4108 315° West 214 246 26,000  Level Indianapolis Center
03:17PM 40.4350 -84.4656 315° West 214 246 26,000  Level Indianapolis Center
03:18PM 40.4781 -84.5214 315° West 214 246 26,000  Level Indianapolis Center
03:19PM 40.5206 -84.5769 315° West 214 246 26,000  Level Indianapolis Center
03:20PM 40.5714 -84.6447 315° West 215 247 26,000  Level Indianapolis Center
03:21PM 40.6128 -84.7011 314° West 215 247 26,000  Level Indianapolis Center
03:22PM 40.6447 -84.7397 317° Northwest 216 249 26,000  Level Chicago Center
03:23PM 40.6947 -84.8064 315° West 216 249 26,000  Level Chicago Center
03:24PM 40.7353 -84.8639 313° West 215 247 26,000  Level Chicago Center
03:25PM 40.7739 -84.9217 311° West 215 247 26,000  Level Chicago Center
03:26PM 40.8144 -84.9792 313° West 214 246 26,000  Level Chicago Center
03:27PM 40.8536 -85.0358 312° West 214 246 26,000  Level Chicago Center
03:28PM 40.8939 -85.0933 313° West 214 246 26,000  Level Chicago Center
03:29PM 40.9428 -85.1656 312° West 216 249 26,000 -290 Level Chicago Center
03:30PM 40.9853 -85.2264 313° West 219 252 25,400 -677 Descending Chicago Center
03:31PM 41.0306 -85.2922 312° West 233 268 24,600 -871 Descending Chicago Center
03:32PM 41.0761 -85.3608 311° West 244 281 23,600 -968 Descending Chicago Center
03:33PM 41.1225 -85.4286 312° West 247 284 22,600 -968 Descending Chicago Center
03:34PM 41.1678 -85.4956 312° West 246 283 21,600 -1,065 Descending Chicago Center
03:35PM 41.2197 -85.5731 312° West 235 270 20,400 -1,065 Descending Chicago Center
03:36PM 41.2583 -85.6389 308° West 231 266 19,400 -968 Descending Chicago Center
03:37PM 41.2842 -85.7153 294° West 227 261 18,400 -919 Descending Chicago Center
03:38PM 41.3119 -85.7925 296° West 228 262 17,500 -919 Descending Chicago Center
03:40PM 41.3389 -85.8694 295° West 228 262 16,500 -919 Descending Chicago Center
03:41PM 41.3675 -85.9478 296° West 232 267 15,600 -871 Descending Chicago Center
03:42PM 41.3942 -86.0253 295° West 232 267 14,700 -919 Descending Chicago Center
03:43PM 41.4267 -86.1189 295° West 232 267 13,700 -968 Descending Chicago Center
03:44PM 41.4539 -86.1961 295° West 232 267 12,700 -919 Descending Chicago Center
03:45PM 41.4678 -86.2772 283° West 227 261 11,800 -871 Descending Chicago Center
03:46PM 41.4733 -86.3611 275° West 228 262 10,900 -871 Descending Chicago Center
03:47PM 41.4786 -86.4478 275° West 230 265 10,000 -823 Descending Chicago Center
03:48PM 41.4833 -86.5342 274° West 231 266 9,200 -871 Descending Chicago Center
03:49PM 41.4883 -86.6308 274° West 221 254 8,200 -919 Descending Chicago Center
03:50PM 41.4939 -86.7147 275° West 221 254 7,300 -710 Descending Chicago Center
03:52PM 41.5044 -86.8906 275° West 231 266 6,000 -419 Descending Chicago Center
03:53PM 41.5083 -86.9828 273° West 231 266 6,000  Level Chicago Center
03:54PM 41.5136 -87.0681 275° West 231 266 6,000  Level Chicago Center
03:55PM 41.5175 -87.1536 274° West 231 266 6,000 -339 Level Chicago Center
03:56PM 41.5228 -87.2494 274° West 238 274 5,300 -581 Descending Chicago Center
03:57PM 41.5275 -87.3425 274° West 248 285 4,800 -581 Descending Chicago Center
03:58PM 41.5333 -87.4422 275° West 250 288 4,100 -387 Descending Chicago Center
03:59PM 41.5381 -87.5336 274° West 249 287 4,000 -48 Descending Chicago Center
04:00PM 41.5456 -87.6247 276° West 247 284 4,000  Level Chicago Center
04:01PM 41.5739 -87.7161 293° West 247 284 4,000 -339 Level Chicago Center
04:02PM 41.5992 -87.7956 293° West 232 267 3,300 -484 Descending Chicago Center
04:03PM 41.6106 -87.8647 282° West 192 221 3,000 -145 Descending Chicago Center
04:04PM 41.6369 -87.9131 306° West 171 197 3,000  Level Chicago Center
04:05PM 41.6778 -87.8800 31° Northeast 172 198 3,000 -240 Level Chicago Center
04:06PM 41.7139 -87.8392 40° Northeast 161 185 2,500 -532 Descending Chicago Center
04:07PM 41.7417 -87.8058 42° Northeast 134 154 1,900 -677 Descending Chicago Center
04:08PM 41.7672 -87.7742 43° Northeast 126 145 1,100 -532 Descending Chicago Center
04:09PM 41.7883 -87.7481 43° Northeast 116 133 800 -290 Descending Chicago Center